Terminal Aerodrome Forecast
Issued by NWS

Home | Current Version | Previous Version | Text Only | Print | Product List | Glossary On
Versions: 1 2 3 4 5 6 7 8 9 10 11 12 13 14 15 16
000
FTUS44 KTSA 230500
TAFRVS
TAF
KRVS 230520Z 2306/2406 16007KT P6SM SCT100 BKN150
      TEMPO 2306/2309 5SM -SHRA BR BKN040
     FM230900 15003KT P6SM VCSH BKN040
     FM231200 18006KT P6SM BKN050
     FM232100 18006KT P6SM SCT250
     FM240000 18002KT P6SM SKC=

USA.gov is the U.S. government's official web portal to all federal, state and local government web resources and services.